sensor_id;sensor_type;location;lat;lon;timestamp;P1;durP1;ratioP1;P2;durP2;ratioP2
577;SDS011;275;48.492;9.214;2024-01-07T00:00:37;35.97;;;32.67;;
577;SDS011;275;48.492;9.214;2024-01-07T00:03:05;37.08;;;33.58;;
577;SDS011;275;48.492;9.214;2024-01-07T00:05:32;36.13;;;32.85;;
577;SDS011;275;48.492;9.214;2024-01-07T00:08:01;37.05;;;33.58;;
577;SDS011;275;48.492;9.214;2024-01-07T00:10:28;38.75;;;35.20;;
577;SDS011;275;48.492;9.214;2024-01-07T00:12:55;38.00;;;34.30;;
577;SDS011;275;48.492;9.214;2024-01-07T00:15:22;38.40;;;34.58;;
577;SDS011;275;48.492;9.214;2024-01-07T00:17:51;38.30;;;34.80;;
577;SDS011;275;48.492;9.214;2024-01-07T00:20:20;38.20;;;34.60;;
577;SDS011;275;48.492;9.214;2024-01-07T00:22:46;36.85;;;33.45;;
577;SDS011;275;48.492;9.214;2024-01-07T00:25:13;39.15;;;35.30;;
577;SDS011;275;48.492;9.214;2024-01-07T00:27:40;37.28;;;33.67;;
577;SDS011;275;48.492;9.214;2024-01-07T00:30:07;38.50;;;34.90;;
577;SDS011;275;48.492;9.214;2024-01-07T00:32:34;39.97;;;36.28;;
577;SDS011;275;48.492;9.214;2024-01-07T00:35:01;41.47;;;37.58;;
577;SDS011;275;48.492;9.214;2024-01-07T00:37:29;39.47;;;35.78;;
577;SDS011;275;48.492;9.214;2024-01-07T00:39:56;42.65;;;38.65;;
577;SDS011;275;48.492;9.214;2024-01-07T00:42:23;43.00;;;38.75;;
577;SDS011;275;48.492;9.214;2024-01-07T00:44:49;43.42;;;39.25;;
577;SDS011;275;48.492;9.214;2024-01-07T00:47:16;43.42;;;39.30;;
577;SDS011;275;48.492;9.214;2024-01-07T00:49:43;43.20;;;39.03;;
577;SDS011;275;48.492;9.214;2024-01-07T00:52:10;43.38;;;38.92;;
577;SDS011;275;48.492;9.214;2024-01-07T00:54:38;43.38;;;39.38;;
577;SDS011;275;48.492;9.214;2024-01-07T00:57:05;43.05;;;38.92;;
577;SDS011;275;48.492;9.214;2024-01-07T00:59:32;42.72;;;38.60;;
577;SDS011;275;48.492;9.214;2024-01-07T01:01:58;42.65;;;38.28;;
577;SDS011;275;48.492;9.214;2024-01-07T01:04:25;43.70;;;39.50;;
577;SDS011;275;48.492;9.214;2024-01-07T01:06:52;43.80;;;39.53;;
577;SDS011;275;48.492;9.214;2024-01-07T01:09:19;43.17;;;38.85;;
577;SDS011;275;48.492;9.214;2024-01-07T01:11:47;41.40;;;37.30;;
577;SDS011;275;48.492;9.214;2024-01-07T01:14:14;45.03;;;40.35;;
577;SDS011;275;48.492;9.214;2024-01-07T01:16:41;43.00;;;38.70;;
577;SDS011;275;48.492;9.214;2024-01-07T01:19:08;43.03;;;38.80;;
577;SDS011;275;48.492;9.214;2024-01-07T01:21:35;43.70;;;39.40;;
577;SDS011;275;48.492;9.214;2024-01-07T01:24:02;42.70;;;38.47;;
577;SDS011;275;48.492;9.214;2024-01-07T01:26:29;43.30;;;38.90;;
577;SDS011;275;48.492;9.214;2024-01-07T01:28:57;41.67;;;37.65;;
577;SDS011;275;48.492;9.214;2024-01-07T01:31:24;42.85;;;38.80;;
577;SDS011;275;48.492;9.214;2024-01-07T01:33:50;43.35;;;39.03;;
577;SDS011;275;48.492;9.214;2024-01-07T01:36:17;45.40;;;40.90;;
577;SDS011;275;48.492;9.214;2024-01-07T01:38:44;44.55;;;40.15;;
577;SDS011;275;48.492;9.214;2024-01-07T01:41:11;45.35;;;40.85;;
577;SDS011;275;48.492;9.214;2024-01-07T01:43:38;46.72;;;42.03;;
577;SDS011;275;48.492;9.214;2024-01-07T01:46:06;45.72;;;41.13;;
577;SDS011;275;48.492;9.214;2024-01-07T01:48:33;45.22;;;40.75;;
577;SDS011;275;48.492;9.214;2024-01-07T01:51:01;46.58;;;41.85;;
577;SDS011;275;48.492;9.214;2024-01-07T01:53:28;45.70;;;41.05;;
577;SDS011;275;48.492;9.214;2024-01-07T01:55:56;46.58;;;41.97;;
577;SDS011;275;48.492;9.214;2024-01-07T01:58:25;46.72;;;41.85;;
577;SDS011;275;48.492;9.214;2024-01-07T02:00:54;44.67;;;40.17;;
577;SDS011;275;48.492;9.214;2024-01-07T02:03:23;44.47;;;40.10;;
577;SDS011;275;48.492;9.214;2024-01-07T02:05:49;46.10;;;41.42;;
577;SDS011;275;48.492;9.214;2024-01-07T02:08:17;45.40;;;40.80;;
577;SDS011;275;48.492;9.214;2024-01-07T02:10:45;44.65;;;40.22;;
577;SDS011;275;48.492;9.214;2024-01-07T02:13:12;47.10;;;42.05;;
577;SDS011;275;48.492;9.214;2024-01-07T02:15:42;44.90;;;40.40;;
577;SDS011;275;48.492;9.214;2024-01-07T02:18:09;43.78;;;39.42;;
577;SDS011;275;48.492;9.214;2024-01-07T02:20:40;46.70;;;41.85;;
577;SDS011;275;48.492;9.214;2024-01-07T02:23:07;45.97;;;41.47;;
577;SDS011;275;48.492;9.214;2024-01-07T02:25:36;46.33;;;41.42;;
577;SDS011;275;48.492;9.214;2024-01-07T02:28:03;42.40;;;38.35;;
577;SDS011;275;48.492;9.214;2024-01-07T02:30:30;47.25;;;42.47;;
577;SDS011;275;48.492;9.214;2024-01-07T02:33:00;45.75;;;41.08;;
577;SDS011;275;48.492;9.214;2024-01-07T02:35:28;40.47;;;36.30;;
577;SDS011;275;48.492;9.214;2024-01-07T02:37:55;42.22;;;37.95;;
577;SDS011;275;48.492;9.214;2024-01-07T02:40:22;43.05;;;38.58;;
577;SDS011;275;48.492;9.214;2024-01-07T02:42:50;40.13;;;36.13;;
577;SDS011;275;48.492;9.214;2024-01-07T02:45:16;41.13;;;36.92;;
577;SDS011;275;48.492;9.214;2024-01-07T02:47:44;38.85;;;34.95;;
577;SDS011;275;48.492;9.214;2024-01-07T02:50:10;41.50;;;37.35;;
577;SDS011;275;48.492;9.214;2024-01-07T02:52:37;38.72;;;34.75;;
577;SDS011;275;48.492;9.214;2024-01-07T02:55:04;39.40;;;35.38;;
577;SDS011;275;48.492;9.214;2024-01-07T02:57:31;43.50;;;38.85;;
577;SDS011;275;48.492;9.214;2024-01-07T02:59:59;41.70;;;37.50;;
577;SDS011;275;48.492;9.214;2024-01-07T03:02:27;41.45;;;36.97;;
577;SDS011;275;48.492;9.214;2024-01-07T03:04:54;38.80;;;35.00;;
577;SDS011;275;48.492;9.214;2024-01-07T03:07:21;38.05;;;34.30;;
577;SDS011;275;48.492;9.214;2024-01-07T03:09:47;37.30;;;33.40;;
577;SDS011;275;48.492;9.214;2024-01-07T03:12:15;36.83;;;33.10;;
577;SDS011;275;48.492;9.214;2024-01-07T03:14:42;40.05;;;36.05;;
577;SDS011;275;48.492;9.214;2024-01-07T03:17:10;37.72;;;33.97;;
577;SDS011;275;48.492;9.214;2024-01-07T03:19:37;38.80;;;35.05;;
577;SDS011;275;48.492;9.214;2024-01-07T03:22:04;40.25;;;36.33;;
577;SDS011;275;48.492;9.214;2024-01-07T03:24:32;29.17;;;26.23;;
577;SDS011;275;48.492;9.214;2024-01-07T03:26:59;39.35;;;35.17;;
577;SDS011;275;48.492;9.214;2024-01-07T03:29:25;37.75;;;34.17;;
577;SDS011;275;48.492;9.214;2024-01-07T03:31:52;37.60;;;33.83;;
577;SDS011;275;48.492;9.214;2024-01-07T03:34:20;36.58;;;32.88;;
577;SDS011;275;48.492;9.214;2024-01-07T03:36:47;39.53;;;35.45;;
577;SDS011;275;48.492;9.214;2024-01-07T03:39:13;34.63;;;30.93;;
577;SDS011;275;48.492;9.214;2024-01-07T03:41:40;37.65;;;33.85;;
577;SDS011;275;48.492;9.214;2024-01-07T03:44:06;37.63;;;34.13;;
577;SDS011;275;48.492;9.214;2024-01-07T03:46:33;35.00;;;31.60;;
577;SDS011;275;48.492;9.214;2024-01-07T03:49:00;37.58;;;33.75;;
577;SDS011;275;48.492;9.214;2024-01-07T03:51:28;35.10;;;31.60;;
577;SDS011;275;48.492;9.214;2024-01-07T03:53:55;36.65;;;32.85;;
577;SDS011;275;48.492;9.214;2024-01-07T03:56:22;38.80;;;35.00;;
577;SDS011;275;48.492;9.214;2024-01-07T03:58:49;35.30;;;31.80;;
577;SDS011;275;48.492;9.214;2024-01-07T04:01:16;35.40;;;31.88;;
577;SDS011;275;48.492;9.214;2024-01-07T04:03:43;35.90;;;32.30;;
577;SDS011;275;48.492;9.214;2024-01-07T04:06:10;36.20;;;32.60;;
577;SDS011;275;48.492;9.214;2024-01-07T04:08:38;38.90;;;35.30;;
577;SDS011;275;48.492;9.214;2024-01-07T04:11:04;38.65;;;35.03;;
577;SDS011;275;48.492;9.214;2024-01-07T04:13:31;38.83;;;34.97;;
577;SDS011;275;48.492;9.214;2024-01-07T04:15:58;37.95;;;33.90;;
577;SDS011;275;48.492;9.214;2024-01-07T04:18:25;39.33;;;35.50;;
577;SDS011;275;48.492;9.214;2024-01-07T04:20:52;38.72;;;34.67;;
577;SDS011;275;48.492;9.214;2024-01-07T04:23:18;36.47;;;32.80;;
577;SDS011;275;48.492;9.214;2024-01-07T04:25:47;38.05;;;34.15;;
577;SDS011;275;48.492;9.214;2024-01-07T04:28:13;37.30;;;33.67;;
577;SDS011;275;48.492;9.214;2024-01-07T04:30:40;35.10;;;31.45;;
577;SDS011;275;48.492;9.214;2024-01-07T04:33:07;37.35;;;33.67;;
577;SDS011;275;48.492;9.214;2024-01-07T04:35:34;35.90;;;32.55;;
577;SDS011;275;48.492;9.214;2024-01-07T04:38:01;35.90;;;32.42;;
577;SDS011;275;48.492;9.214;2024-01-07T04:40:28;37.17;;;33.63;;
577;SDS011;275;48.492;9.214;2024-01-07T04:42:56;34.97;;;31.58;;
577;SDS011;275;48.492;9.214;2024-01-07T04:45:23;35.70;;;32.15;;
577;SDS011;275;48.492;9.214;2024-01-07T04:47:50;36.33;;;32.83;;
577;SDS011;275;48.492;9.214;2024-01-07T04:50:17;38.15;;;34.50;;
577;SDS011;275;48.492;9.214;2024-01-07T04:52:44;35.75;;;32.22;;
577;SDS011;275;48.492;9.214;2024-01-07T04:55:11;36.10;;;32.80;;
577;SDS011;275;48.492;9.214;2024-01-07T04:57:38;36.00;;;32.58;;
577;SDS011;275;48.492;9.214;2024-01-07T05:00:07;36.25;;;32.88;;
577;SDS011;275;48.492;9.214;2024-01-07T05:02:34;35.47;;;32.22;;
577;SDS011;275;48.492;9.214;2024-01-07T05:05:01;34.38;;;31.27;;
577;SDS011;275;48.492;9.214;2024-01-07T05:07:29;35.53;;;32.03;;
577;SDS011;275;48.492;9.214;2024-01-07T05:09:55;34.75;;;31.15;;
577;SDS011;275;48.492;9.214;2024-01-07T05:12:22;33.40;;;30.50;;
577;SDS011;275;48.492;9.214;2024-01-07T05:14:50;35.92;;;32.38;;
577;SDS011;275;48.492;9.214;2024-01-07T05:17:18;34.78;;;31.58;;
577;SDS011;275;48.492;9.214;2024-01-07T05:19:45;35.08;;;31.90;;
577;SDS011;275;48.492;9.214;2024-01-07T05:22:12;35.00;;;31.75;;
577;SDS011;275;48.492;9.214;2024-01-07T05:24:38;33.72;;;30.63;;
577;SDS011;275;48.492;9.214;2024-01-07T05:27:05;33.22;;;30.20;;
577;SDS011;275;48.492;9.214;2024-01-07T05:29:32;31.30;;;28.67;;
577;SDS011;275;48.492;9.214;2024-01-07T05:31:59;31.15;;;28.10;;
577;SDS011;275;48.492;9.214;2024-01-07T05:34:29;33.47;;;30.40;;
577;SDS011;275;48.492;9.214;2024-01-07T05:36:56;30.42;;;27.73;;
577;SDS011;275;48.492;9.214;2024-01-07T05:39:22;33.03;;;29.88;;
577;SDS011;275;48.492;9.214;2024-01-07T05:41:49;28.67;;;26.15;;
577;SDS011;275;48.492;9.214;2024-01-07T05:44:16;27.90;;;25.35;;
577;SDS011;275;48.492;9.214;2024-01-07T05:46:43;25.48;;;23.38;;
577;SDS011;275;48.492;9.214;2024-01-07T05:49:10;26.90;;;24.63;;
577;SDS011;275;48.492;9.214;2024-01-07T05:51:39;28.25;;;25.85;;
577;SDS011;275;48.492;9.214;2024-01-07T05:54:06;24.70;;;22.60;;
577;SDS011;275;48.492;9.214;2024-01-07T05:56:37;24.52;;;22.42;;
577;SDS011;275;48.492;9.214;2024-01-07T05:59:05;26.35;;;24.25;;
577;SDS011;275;48.492;9.214;2024-01-07T06:01:32;26.67;;;24.42;;
577;SDS011;275;48.492;9.214;2024-01-07T06:03:58;24.98;;;22.95;;
577;SDS011;275;48.492;9.214;2024-01-07T06:06:25;27.98;;;25.50;;
577;SDS011;275;48.492;9.214;2024-01-07T06:08:54;27.85;;;25.45;;
577;SDS011;275;48.492;9.214;2024-01-07T06:11:20;26.23;;;23.92;;
577;SDS011;275;48.492;9.214;2024-01-07T06:13:47;25.73;;;23.60;;
577;SDS011;275;48.492;9.214;2024-01-07T06:16:14;28.15;;;25.65;;
577;SDS011;275;48.492;9.214;2024-01-07T06:18:41;26.58;;;24.40;;
577;SDS011;275;48.492;9.214;2024-01-07T06:21:07;26.10;;;24.00;;
577;SDS011;275;48.492;9.214;2024-01-07T06:23:34;26.83;;;24.60;;
577;SDS011;275;48.492;9.214;2024-01-07T06:26:04;25.52;;;23.25;;
577;SDS011;275;48.492;9.214;2024-01-07T06:28:31;26.38;;;24.08;;
577;SDS011;275;48.492;9.214;2024-01-07T06:30:58;26.45;;;24.23;;
577;SDS011;275;48.492;9.214;2024-01-07T06:33:25;26.55;;;24.35;;
577;SDS011;275;48.492;9.214;2024-01-07T06:35:52;27.73;;;25.45;;
577;SDS011;275;48.492;9.214;2024-01-07T06:38:18;27.23;;;25.02;;
577;SDS011;275;48.492;9.214;2024-01-07T06:40:45;24.88;;;22.88;;
577;SDS011;275;48.492;9.214;2024-01-07T06:43:13;25.63;;;23.27;;
577;SDS011;275;48.492;9.214;2024-01-07T06:45:40;29.60;;;26.95;;
577;SDS011;275;48.492;9.214;2024-01-07T06:48:08;27.55;;;25.20;;
577;SDS011;275;48.492;9.214;2024-01-07T06:50:35;27.13;;;24.92;;
577;SDS011;275;48.492;9.214;2024-01-07T06:53:02;27.52;;;25.20;;
577;SDS011;275;48.492;9.214;2024-01-07T06:55:29;28.45;;;26.15;;
577;SDS011;275;48.492;9.214;2024-01-07T06:57:55;30.55;;;27.90;;
577;SDS011;275;48.492;9.214;2024-01-07T07:00:24;31.00;;;28.48;;
577;SDS011;275;48.492;9.214;2024-01-07T07:02:50;30.80;;;28.10;;
577;SDS011;275;48.492;9.214;2024-01-07T07:05:17;31.45;;;28.55;;
577;SDS011;275;48.492;9.214;2024-01-07T07:07:44;29.83;;;27.38;;
577;SDS011;275;48.492;9.214;2024-01-07T07:10:11;29.52;;;26.98;;
577;SDS011;275;48.492;9.214;2024-01-07T07:12:38;30.65;;;28.15;;
577;SDS011;275;48.492;9.214;2024-01-07T07:15:05;30.88;;;28.23;;
577;SDS011;275;48.492;9.214;2024-01-07T07:17:36;32.50;;;29.70;;
577;SDS011;275;48.492;9.214;2024-01-07T07:20:03;29.08;;;26.77;;
577;SDS011;275;48.492;9.214;2024-01-07T07:22:30;32.15;;;29.48;;
577;SDS011;275;48.492;9.214;2024-01-07T07:24:57;30.48;;;27.75;;
577;SDS011;275;48.492;9.214;2024-01-07T07:27:24;31.60;;;28.90;;
577;SDS011;275;48.492;9.214;2024-01-07T07:29:51;32.00;;;29.40;;
577;SDS011;275;48.492;9.214;2024-01-07T07:32:18;31.00;;;28.48;;
577;SDS011;275;48.492;9.214;2024-01-07T07:34:46;29.33;;;26.85;;
577;SDS011;275;48.492;9.214;2024-01-07T07:37:13;31.48;;;28.88;;
577;SDS011;275;48.492;9.214;2024-01-07T07:39:40;29.45;;;26.88;;
577;SDS011;275;48.492;9.214;2024-01-07T07:42:06;30.95;;;28.35;;
577;SDS011;275;48.492;9.214;2024-01-07T07:44:35;32.20;;;29.40;;
577;SDS011;275;48.492;9.214;2024-01-07T07:47:04;31.85;;;29.05;;
577;SDS011;275;48.492;9.214;2024-01-07T07:49:31;30.42;;;27.77;;
577;SDS011;275;48.492;9.214;2024-01-07T07:51:59;33.15;;;30.25;;
577;SDS011;275;48.492;9.214;2024-01-07T07:54:26;31.30;;;28.60;;
577;SDS011;275;48.492;9.214;2024-01-07T07:56:53;31.92;;;29.33;;
577;SDS011;275;48.492;9.214;2024-01-07T07:59:19;33.33;;;30.48;;
577;SDS011;275;48.492;9.214;2024-01-07T08:01:46;33.58;;;30.77;;
577;SDS011;275;48.492;9.214;2024-01-07T08:04:14;31.17;;;28.58;;
577;SDS011;275;48.492;9.214;2024-01-07T08:06:41;31.10;;;28.40;;
577;SDS011;275;48.492;9.214;2024-01-07T08:09:11;32.25;;;29.30;;
577;SDS011;275;48.492;9.214;2024-01-07T08:11:38;33.03;;;30.35;;
577;SDS011;275;48.492;9.214;2024-01-07T08:14:05;32.63;;;29.88;;
577;SDS011;275;48.492;9.214;2024-01-07T08:16:32;33.30;;;30.50;;
577;SDS011;275;48.492;9.214;2024-01-07T08:18:58;30.50;;;27.90;;
577;SDS011;275;48.492;9.214;2024-01-07T08:21:25;31.90;;;29.20;;
577;SDS011;275;48.492;9.214;2024-01-07T08:23:52;33.65;;;30.85;;
577;SDS011;275;48.492;9.214;2024-01-07T08:26:20;35.05;;;32.15;;
577;SDS011;275;48.492;9.214;2024-01-07T08:28:48;31.85;;;28.85;;
577;SDS011;275;48.492;9.214;2024-01-07T08:31:15;35.22;;;32.35;;
577;SDS011;275;48.492;9.214;2024-01-07T08:33:41;34.20;;;31.30;;
577;SDS011;275;48.492;9.214;2024-01-07T08:36:08;33.83;;;30.88;;
577;SDS011;275;48.492;9.214;2024-01-07T08:38:35;33.42;;;30.55;;
577;SDS011;275;48.492;9.214;2024-01-07T08:41:02;37.08;;;33.78;;
577;SDS011;275;48.492;9.214;2024-01-07T08:43:31;33.15;;;30.38;;
577;SDS011;275;48.492;9.214;2024-01-07T08:45:57;33.78;;;30.92;;
577;SDS011;275;48.492;9.214;2024-01-07T08:48:24;30.77;;;28.33;;
577;SDS011;275;48.492;9.214;2024-01-07T08:50:51;32.33;;;29.60;;
577;SDS011;275;48.492;9.214;2024-01-07T08:53:18;32.25;;;29.42;;
577;SDS011;275;48.492;9.214;2024-01-07T08:55:45;30.77;;;28.30;;
577;SDS011;275;48.492;9.214;2024-01-07T08:58:12;26.73;;;24.42;;
577;SDS011;275;48.492;9.214;2024-01-07T09:00:41;27.10;;;24.90;;
577;SDS011;275;48.492;9.214;2024-01-07T09:03:08;23.38;;;21.45;;
577;SDS011;275;48.492;9.214;2024-01-07T09:05:35;22.15;;;20.25;;
577;SDS011;275;48.492;9.214;2024-01-07T09:08:02;20.80;;;18.95;;
577;SDS011;275;48.492;9.214;2024-01-07T09:10:29;21.00;;;19.20;;
577;SDS011;275;48.492;9.214;2024-01-07T09:12:55;21.27;;;19.38;;
577;SDS011;275;48.492;9.214;2024-01-07T09:15:22;21.25;;;19.35;;
577;SDS011;275;48.492;9.214;2024-01-07T09:17:50;18.85;;;17.23;;
577;SDS011;275;48.492;9.214;2024-01-07T09:20:17;18.17;;;16.60;;
577;SDS011;275;48.492;9.214;2024-01-07T09:22:45;17.65;;;16.05;;
577;SDS011;275;48.492;9.214;2024-01-07T09:25:13;17.35;;;15.75;;
577;SDS011;275;48.492;9.214;2024-01-07T09:27:41;18.33;;;16.60;;
577;SDS011;275;48.492;9.214;2024-01-07T09:30:09;18.52;;;16.75;;
577;SDS011;275;48.492;9.214;2024-01-07T09:32:39;17.35;;;15.85;;
577;SDS011;275;48.492;9.214;2024-01-07T09:35:08;15.23;;;13.82;;
577;SDS011;275;48.492;9.214;2024-01-07T09:37:35;15.45;;;14.05;;
577;SDS011;275;48.492;9.214;2024-01-07T09:40:02;13.95;;;12.65;;
577;SDS011;275;48.492;9.214;2024-01-07T09:42:30;13.73;;;12.43;;
577;SDS011;275;48.492;9.214;2024-01-07T09:44:57;15.32;;;13.98;;
577;SDS011;275;48.492;9.214;2024-01-07T09:47:28;15.57;;;14.05;;
577;SDS011;275;48.492;9.214;2024-01-07T09:49:55;15.02;;;13.73;;
577;SDS011;275;48.492;9.214;2024-01-07T09:52:23;16.27;;;14.88;;
577;SDS011;275;48.492;9.214;2024-01-07T09:55:02;14.30;;;13.00;;
577;SDS011;275;48.492;9.214;2024-01-07T09:57:29;16.30;;;14.60;;
577;SDS011;275;48.492;9.214;2024-01-07T09:59:56;15.05;;;13.65;;
577;SDS011;275;48.492;9.214;2024-01-07T10:02:23;15.95;;;14.63;;
577;SDS011;275;48.492;9.214;2024-01-07T10:04:50;15.70;;;14.30;;
577;SDS011;275;48.492;9.214;2024-01-07T10:07:17;15.35;;;14.00;;
577;SDS011;275;48.492;9.214;2024-01-07T10:09:45;15.43;;;13.98;;
577;SDS011;275;48.492;9.214;2024-01-07T10:12:12;14.10;;;12.80;;
577;SDS011;275;48.492;9.214;2024-01-07T10:14:39;14.38;;;12.98;;
577;SDS011;275;48.492;9.214;2024-01-07T10:17:13;14.27;;;12.88;;
577;SDS011;275;48.492;9.214;2024-01-07T10:19:42;13.18;;;12.00;;
577;SDS011;275;48.492;9.214;2024-01-07T10:22:09;13.30;;;12.02;;
577;SDS011;275;48.492;9.214;2024-01-07T10:24:40;13.38;;;12.18;;
577;SDS011;275;48.492;9.214;2024-01-07T10:27:09;12.10;;;11.00;;
577;SDS011;275;48.492;9.214;2024-01-07T10:29:37;13.02;;;11.73;;
577;SDS011;275;48.492;9.214;2024-01-07T10:32:04;12.73;;;11.65;;
577;SDS011;275;48.492;9.214;2024-01-07T10:34:32;12.60;;;11.50;;
577;SDS011;275;48.492;9.214;2024-01-07T10:37:00;13.07;;;11.88;;
577;SDS011;275;48.492;9.214;2024-01-07T10:39:28;11.57;;;10.43;;
577;SDS011;275;48.492;9.214;2024-01-07T10:41:55;13.45;;;12.35;;
577;SDS011;275;48.492;9.214;2024-01-07T10:44:25;13.43;;;12.13;;
577;SDS011;275;48.492;9.214;2024-01-07T10:46:53;11.85;;;10.75;;
577;SDS011;275;48.492;9.214;2024-01-07T10:49:22;13.93;;;12.52;;
577;SDS011;275;48.492;9.214;2024-01-07T10:51:51;12.95;;;11.75;;
577;SDS011;275;48.492;9.214;2024-01-07T10:54:30;13.05;;;11.93;;
577;SDS011;275;48.492;9.214;2024-01-07T10:56:59;12.13;;;11.02;;
577;SDS011;275;48.492;9.214;2024-01-07T10:59:31;12.77;;;11.68;;
577;SDS011;275;48.492;9.214;2024-01-07T11:01:59;11.70;;;10.60;;
577;SDS011;275;48.492;9.214;2024-01-07T11:04:29;12.65;;;11.55;;
577;SDS011;275;48.492;9.214;2024-01-07T11:07:08;12.40;;;11.30;;
577;SDS011;275;48.492;9.214;2024-01-07T11:09:46;13.70;;;12.50;;
577;SDS011;275;48.492;9.214;2024-01-07T11:12:22;12.63;;;11.52;;
577;SDS011;275;48.492;9.214;2024-01-07T11:14:50;13.82;;;12.63;;
577;SDS011;275;48.492;9.214;2024-01-07T11:20:11;13.70;;;12.50;;
577;SDS011;275;48.492;9.214;2024-01-07T11:22:45;14.05;;;12.75;;
577;SDS011;275;48.492;9.214;2024-01-07T11:25:30;14.20;;;12.93;;
577;SDS011;275;48.492;9.214;2024-01-07T11:27:58;16.40;;;14.80;;
577;SDS011;275;48.492;9.214;2024-01-07T11:30:27;14.85;;;13.45;;
577;SDS011;275;48.492;9.214;2024-01-07T11:32:57;14.35;;;13.05;;
577;SDS011;275;48.492;9.214;2024-01-07T11:38:22;15.73;;;14.43;;
577;SDS011;275;48.492;9.214;2024-01-07T11:40:49;15.77;;;14.40;;
577;SDS011;275;48.492;9.214;2024-01-07T11:43:17;14.25;;;13.05;;
577;SDS011;275;48.492;9.214;2024-01-07T11:45:45;14.73;;;13.43;;
577;SDS011;275;48.492;9.214;2024-01-07T11:48:13;15.52;;;14.23;;
577;SDS011;275;48.492;9.214;2024-01-07T11:50:40;16.70;;;15.20;;
577;SDS011;275;48.492;9.214;2024-01-07T11:53:07;15.95;;;14.55;;
577;SDS011;275;48.492;9.214;2024-01-07T11:55:34;16.40;;;15.00;;
577;SDS011;275;48.492;9.214;2024-01-07T11:58:02;15.80;;;14.40;;
577;SDS011;275;48.492;9.214;2024-01-07T12:00:30;15.35;;;14.05;;
577;SDS011;275;48.492;9.214;2024-01-07T12:03:00;17.13;;;15.57;;
577;SDS011;275;48.492;9.214;2024-01-07T12:05:27;17.85;;;16.25;;
577;SDS011;275;48.492;9.214;2024-01-07T12:07:53;14.10;;;12.90;;
577;SDS011;275;48.492;9.214;2024-01-07T12:10:22;15.77;;;14.35;;
577;SDS011;275;48.492;9.214;2024-01-07T12:12:49;16.15;;;14.75;;
577;SDS011;275;48.492;9.214;2024-01-07T12:15:17;16.20;;;14.80;;
577;SDS011;275;48.492;9.214;2024-01-07T12:17:48;14.50;;;12.70;;
577;SDS011;275;48.492;9.214;2024-01-07T12:20:23;15.50;;;14.10;;
577;SDS011;275;48.492;9.214;2024-01-07T12:22:51;14.98;;;13.68;;
577;SDS011;275;48.492;9.214;2024-01-07T12:25:21;14.45;;;13.15;;
577;SDS011;275;48.492;9.214;2024-01-07T12:27:49;14.55;;;13.32;;
577;SDS011;275;48.492;9.214;2024-01-07T12:30:18;14.45;;;13.25;;
577;SDS011;275;48.492;9.214;2024-01-07T12:32:45;14.40;;;13.20;;
577;SDS011;275;48.492;9.214;2024-01-07T12:35:12;14.30;;;13.02;;
577;SDS011;275;48.492;9.214;2024-01-07T12:37:41;14.15;;;12.95;;
577;SDS011;275;48.492;9.214;2024-01-07T12:40:09;15.13;;;13.85;;
577;SDS011;275;48.492;9.214;2024-01-07T12:42:37;16.13;;;14.68;;
577;SDS011;275;48.492;9.214;2024-01-07T12:45:06;15.32;;;13.90;;
577;SDS011;275;48.492;9.214;2024-01-07T12:47:34;16.45;;;15.05;;
577;SDS011;275;48.492;9.214;2024-01-07T12:50:01;14.07;;;12.88;;
577;SDS011;275;48.492;9.214;2024-01-07T12:52:28;15.55;;;14.15;;
577;SDS011;275;48.492;9.214;2024-01-07T12:54:56;16.80;;;15.23;;
577;SDS011;275;48.492;9.214;2024-01-07T12:57:23;15.48;;;14.25;;
577;SDS011;275;48.492;9.214;2024-01-07T12:59:50;15.43;;;14.15;;
577;SDS011;275;48.492;9.214;2024-01-07T13:02:17;15.27;;;13.77;;
577;SDS011;275;48.492;9.214;2024-01-07T13:04:44;14.18;;;12.88;;
577;SDS011;275;48.492;9.214;2024-01-07T13:07:11;13.95;;;12.70;;
577;SDS011;275;48.492;9.214;2024-01-07T13:09:38;13.23;;;12.02;;
577;SDS011;275;48.492;9.214;2024-01-07T13:12:07;12.77;;;11.68;;
577;SDS011;275;48.492;9.214;2024-01-07T13:14:34;12.40;;;11.40;;
577;SDS011;275;48.492;9.214;2024-01-07T13:17:02;13.38;;;12.25;;
577;SDS011;275;48.492;9.214;2024-01-07T13:19:29;13.73;;;12.63;;
577;SDS011;275;48.492;9.214;2024-01-07T13:21:56;13.50;;;12.35;;
577;SDS011;275;48.492;9.214;2024-01-07T13:24:23;14.65;;;13.52;;
577;SDS011;275;48.492;9.214;2024-01-07T13:26:50;14.50;;;13.20;;
577;SDS011;275;48.492;9.214;2024-01-07T13:29:19;15.32;;;14.02;;
577;SDS011;275;48.492;9.214;2024-01-07T13:31:46;14.20;;;13.00;;
577;SDS011;275;48.492;9.214;2024-01-07T13:34:12;14.50;;;13.30;;
577;SDS011;275;48.492;9.214;2024-01-07T13:36:40;15.10;;;13.80;;
577;SDS011;275;48.492;9.214;2024-01-07T13:39:07;14.90;;;13.60;;
577;SDS011;275;48.492;9.214;2024-01-07T13:41:33;14.32;;;13.13;;
577;SDS011;275;48.492;9.214;2024-01-07T13:44:00;16.15;;;14.70;;
577;SDS011;275;48.492;9.214;2024-01-07T13:46:30;15.38;;;14.07;;
577;SDS011;275;48.492;9.214;2024-01-07T13:48:57;16.27;;;14.88;;
577;SDS011;275;48.492;9.214;2024-01-07T13:51:24;17.55;;;16.15;;
577;SDS011;275;48.492;9.214;2024-01-07T13:53:52;17.75;;;16.25;;
577;SDS011;275;48.492;9.214;2024-01-07T13:56:18;17.58;;;16.00;;
577;SDS011;275;48.492;9.214;2024-01-07T13:58:45;17.65;;;16.15;;
577;SDS011;275;48.492;9.214;2024-01-07T14:01:15;18.00;;;16.45;;
577;SDS011;275;48.492;9.214;2024-01-07T14:03:43;19.05;;;17.42;;
577;SDS011;275;48.492;9.214;2024-01-07T14:06:10;19.45;;;17.77;;
577;SDS011;275;48.492;9.214;2024-01-07T14:08:37;18.92;;;17.33;;
577;SDS011;275;48.492;9.214;2024-01-07T14:11:04;18.75;;;17.15;;
577;SDS011;275;48.492;9.214;2024-01-07T14:13:32;20.30;;;18.50;;
577;SDS011;275;48.492;9.214;2024-01-07T14:15:59;21.05;;;19.25;;
577;SDS011;275;48.492;9.214;2024-01-07T14:18:26;21.67;;;19.77;;
577;SDS011;275;48.492;9.214;2024-01-07T14:20:54;21.95;;;20.02;;
577;SDS011;275;48.492;9.214;2024-01-07T14:23:21;19.98;;;18.27;;
577;SDS011;275;48.492;9.214;2024-01-07T14:25:48;22.65;;;20.70;;
577;SDS011;275;48.492;9.214;2024-01-07T14:28:15;24.02;;;21.92;;
577;SDS011;275;48.492;9.214;2024-01-07T14:30:42;23.25;;;21.25;;
577;SDS011;275;48.492;9.214;2024-01-07T14:33:09;23.65;;;21.60;;
577;SDS011;275;48.492;9.214;2024-01-07T14:35:36;23.30;;;21.30;;
577;SDS011;275;48.492;9.214;2024-01-07T14:38:04;24.38;;;22.38;;
577;SDS011;275;48.492;9.214;2024-01-07T14:40:31;24.20;;;22.10;;
577;SDS011;275;48.492;9.214;2024-01-07T14:42:58;24.55;;;22.52;;
577;SDS011;275;48.492;9.214;2024-01-07T14:45:25;24.45;;;22.45;;
577;SDS011;275;48.492;9.214;2024-01-07T14:47:53;26.80;;;24.50;;
577;SDS011;275;48.492;9.214;2024-01-07T14:50:20;29.08;;;26.38;;
577;SDS011;275;48.492;9.214;2024-01-07T14:52:47;27.73;;;25.13;;
577;SDS011;275;48.492;9.214;2024-01-07T14:55:16;26.88;;;24.38;;
577;SDS011;275;48.492;9.214;2024-01-07T14:57:42;26.33;;;24.10;;
577;SDS011;275;48.492;9.214;2024-01-07T15:00:09;28.00;;;25.40;;
577;SDS011;275;48.492;9.214;2024-01-07T15:02:36;26.55;;;24.25;;
577;SDS011;275;48.492;9.214;2024-01-07T15:05:04;27.65;;;25.15;;
577;SDS011;275;48.492;9.214;2024-01-07T15:07:31;27.63;;;24.92;;
577;SDS011;275;48.492;9.214;2024-01-07T15:09:58;29.95;;;27.25;;
577;SDS011;275;48.492;9.214;2024-01-07T15:12:26;28.83;;;26.33;;
577;SDS011;275;48.492;9.214;2024-01-07T15:15:00;30.50;;;27.83;;
577;SDS011;275;48.492;9.214;2024-01-07T15:17:29;26.35;;;24.13;;
577;SDS011;275;48.492;9.214;2024-01-07T15:19:56;29.23;;;26.52;;
577;SDS011;275;48.492;9.214;2024-01-07T15:22:23;29.75;;;26.98;;